createdAt,value
2022-08-18T00:01:16.351Z,25.90
2022-08-18T00:03:56.614Z,25.80
2022-08-18T00:06:30.520Z,25.80
2022-08-18T00:09:01.684Z,25.80
2022-08-18T00:11:40.934Z,25.90
2022-08-18T00:14:22.570Z,25.90
2022-08-18T00:16:54.759Z,26.00
2022-08-18T00:19:46.192Z,26.00
2022-08-18T00:22:16.838Z,26.00
2022-08-18T00:24:54.374Z,26.00
2022-08-18T00:27:29.038Z,26.10
2022-08-18T00:30:02.406Z,26.10
2022-08-18T00:32:35.538Z,26.20
2022-08-18T00:35:19.855Z,26.20
2022-08-18T00:37:50.875Z,26.20
2022-08-18T00:40:24.033Z,26.20
2022-08-18T00:42:57.496Z,26.30
2022-08-18T00:45:31.941Z,26.30
2022-08-18T00:48:02.066Z,26.40
2022-08-18T00:50:42.461Z,26.40
2022-08-18T00:53:19.988Z,26.40
2022-08-18T00:55:54.074Z,26.50
2022-08-18T00:58:31.032Z,26.50
2022-08-18T01:01:06.306Z,26.60
2022-08-18T01:03:41.160Z,26.60
2022-08-18T01:06:19.622Z,26.60
2022-08-18T01:08:49.288Z,26.70
2022-08-18T01:11:18.519Z,26.70
2022-08-18T01:13:47.893Z,26.80
2022-08-18T01:16:36.842Z,26.80
2022-08-18T01:19:25.836Z,26.90
2022-08-18T01:22:03.981Z,26.90
2022-08-18T01:24:57.561Z,26.90
2022-08-18T01:27:33.397Z,27.00
2022-08-18T01:30:12.019Z,27.00
2022-08-18T01:32:42.214Z,27.10
2022-08-18T01:35:13.710Z,27.10
2022-08-18T01:37:43.815Z,27.10
2022-08-18T01:41:17.569Z,27.10
2022-08-18T01:43:06.843Z,27.20
2022-08-18T01:45:37.861Z,27.20
2022-08-18T01:48:07.282Z,27.20
2022-08-18T01:50:41.237Z,27.20
2022-08-18T01:53:10.745Z,27.20
2022-08-18T01:55:46.060Z,27.30
2022-08-18T01:58:15.392Z,27.30
2022-08-18T02:00:44.806Z,27.30
2022-08-18T02:03:16.195Z,27.40
2022-08-18T02:05:51.033Z,27.40
2022-08-18T02:08:20.371Z,27.40
2022-08-18T02:10:49.854Z,27.40
2022-08-18T02:13:19.752Z,27.50
2022-08-18T02:15:49.323Z,27.50
2022-08-18T02:18:25.059Z,27.60
2022-08-18T02:21:15.345Z,27.70
2022-08-18T02:23:53.919Z,27.70
2022-08-18T02:26:24.970Z,27.80
2022-08-18T02:28:54.724Z,27.90
2022-08-18T02:31:26.101Z,28.00
2022-08-18T02:33:55.677Z,28.00
2022-08-18T02:36:25.528Z,28.10
2022-08-18T02:38:59.630Z,28.20
2022-08-18T02:41:30.147Z,28.30
2022-08-18T02:44:00.678Z,28.40
2022-08-18T02:46:33.211Z,28.50
2022-08-18T02:49:03.053Z,28.50
2022-08-18T02:51:33.355Z,28.50
2022-08-18T02:54:02.763Z,28.60
2022-08-18T02:56:40.812Z,28.70
2022-08-18T02:59:16.084Z,28.70
2022-08-18T03:01:47.953Z,28.90
2022-08-18T03:04:24.016Z,28.90
2022-08-18T03:06:57.695Z,29.10
2022-08-18T03:09:26.942Z,29.10
2022-08-18T03:11:56.312Z,29.10
2022-08-18T03:14:25.564Z,29.10
2022-08-18T03:16:55.694Z,29.10
2022-08-18T03:19:29.796Z,29.10
2022-08-18T03:22:02.844Z,29.10
2022-08-18T03:24:33.972Z,29.00
2022-08-18T03:27:07.485Z,29.00
2022-08-18T03:29:38.626Z,29.00
2022-08-18T03:32:09.981Z,28.90
2022-08-18T03:34:39.329Z,28.90
2022-08-18T03:37:08.851Z,28.90
2022-08-18T03:39:38.347Z,28.90
2022-08-18T03:42:07.908Z,28.90
2022-08-18T03:44:38.822Z,29.00
2022-08-18T03:47:12.565Z,29.10
2022-08-18T03:49:43.195Z,29.10
2022-08-18T03:52:13.073Z,29.30
2022-08-18T03:54:42.531Z,29.50
2022-08-18T03:57:13.933Z,29.50
2022-08-18T03:59:45.062Z,29.60
2022-08-18T04:02:15.074Z,29.60
2022-08-18T04:04:44.354Z,29.60
2022-08-18T04:07:18.725Z,29.70
2022-08-18T04:09:48.517Z,29.70
2022-08-18T04:12:18.762Z,29.70
2022-08-18T04:14:51.588Z,29.70
2022-08-18T04:17:26.278Z,29.70
2022-08-18T04:19:57.764Z,29.70
2022-08-18T04:22:28.153Z,29.70
2022-08-18T04:24:58.037Z,29.70
2022-08-18T04:27:27.486Z,29.70
2022-08-18T04:29:58.390Z,29.70
2022-08-18T04:32:29.966Z,29.70
2022-08-18T04:35:02.625Z,29.70
2022-08-18T04:37:38.112Z,29.70
2022-08-18T04:40:09.828Z,29.80
2022-08-18T04:42:46.248Z,29.80
2022-08-18T04:45:15.788Z,29.90
2022-08-18T04:47:45.156Z,30.00
2022-08-18T04:50:14.926Z,30.20
2022-08-18T04:53:05.196Z,30.30
2022-08-18T04:55:34.475Z,30.40
2022-08-18T04:58:04.128Z,30.60
2022-08-18T05:00:33.852Z,30.70
2022-08-18T05:03:03.569Z,30.80
2022-08-18T05:05:36.679Z,30.80
2022-08-18T05:08:06.567Z,30.70
2022-08-18T05:10:35.837Z,30.70
2022-08-18T05:13:05.957Z,30.70
2022-08-18T05:15:59.398Z,30.70
2022-08-18T05:18:26.786Z,30.80
2022-08-18T05:20:58.466Z,30.90
2022-08-18T05:23:30.940Z,31.00
2022-08-18T05:26:03.782Z,31.00
2022-08-18T05:28:36.961Z,31.00
2022-08-18T05:31:14.052Z,30.90
2022-08-18T05:33:44.125Z,30.90
2022-08-18T05:36:52.661Z,30.90
2022-08-18T05:39:22.900Z,31.00
2022-08-18T05:42:03.634Z,31.00
2022-08-18T05:44:38.124Z,31.00
2022-08-18T05:47:13.163Z,31.10
2022-08-18T05:49:45.845Z,31.20
2022-08-18T05:52:16.587Z,31.30
2022-08-18T05:55:11.629Z,31.30
2022-08-18T05:57:54.443Z,31.40
2022-08-18T06:00:25.080Z,31.40
2022-08-18T06:03:01.259Z,31.50
2022-08-18T06:05:34.896Z,31.40
2022-08-18T06:08:10.665Z,31.50
2022-08-18T06:10:40.837Z,31.50
2022-08-18T06:13:12.775Z,31.50
2022-08-18T06:15:51.136Z,31.60
2022-08-18T06:18:41.492Z,31.60
2022-08-18T06:21:21.388Z,31.60
2022-08-18T06:24:10.803Z,31.70
2022-08-18T06:27:19.236Z,31.70
2022-08-18T06:30:09.106Z,31.70
2022-08-18T06:33:10.583Z,31.80
2022-08-18T06:35:44.069Z,31.80
2022-08-18T06:38:40.636Z,31.90
2022-08-18T06:41:40.612Z,32.00
2022-08-18T06:44:18.269Z,32.10
2022-08-18T06:46:53.758Z,32.10
2022-08-18T06:49:29.725Z,32.10
2022-08-18T06:51:59.066Z,32.30
2022-08-18T06:54:31.222Z,32.40
2022-08-18T06:57:01.162Z,32.50
2022-08-18T06:59:36.116Z,32.50
2022-08-18T07:02:27.563Z,32.50
2022-08-18T07:05:08.392Z,32.50
2022-08-18T07:07:41.110Z,32.50
2022-08-18T07:10:18.730Z,32.40
2022-08-18T07:12:48.008Z,32.30
2022-08-18T07:15:26.170Z,32.30
2022-08-18T07:18:07.912Z,32.30
2022-08-18T07:20:56.277Z,32.20
2022-08-18T07:23:35.436Z,32.10
2022-08-18T07:26:10.079Z,32.10
2022-08-18T07:28:49.914Z,32.10
2022-08-18T07:31:22.212Z,32.10
2022-08-18T07:33:58.616Z,32.20
2022-08-18T07:36:34.414Z,32.30
2022-08-18T07:39:17.444Z,32.30
2022-08-18T07:41:58.866Z,32.30
2022-08-18T07:44:30.577Z,32.40
2022-08-18T07:47:06.936Z,32.30
2022-08-18T07:49:43.056Z,32.30
2022-08-18T07:52:43.791Z,32.30
2022-08-18T07:55:32.345Z,32.30
2022-08-18T07:58:28.596Z,32.30
2022-08-18T08:01:10.106Z,32.30
2022-08-18T08:03:51.712Z,32.30
2022-08-18T08:07:06.112Z,32.30
2022-08-18T08:09:48.381Z,32.30
2022-08-18T08:12:22.004Z,32.30
2022-08-18T08:14:56.070Z,32.20
2022-08-18T08:17:35.555Z,32.10
2022-08-18T08:20:12.953Z,32.10
2022-08-18T08:22:54.923Z,32.10
2022-08-18T08:25:46.304Z,32.20
2022-08-18T08:28:26.052Z,32.10
2022-08-18T08:31:33.251Z,32.20
2022-08-18T08:34:06.095Z,32.20
2022-08-18T08:36:41.598Z,32.30
2022-08-18T08:39:15.347Z,32.30
2022-08-18T08:42:30.495Z,32.30
2022-08-18T08:45:07.237Z,32.30
2022-08-18T08:48:25.923Z,32.30
2022-08-18T08:51:02.221Z,32.40
2022-08-18T08:53:45.007Z,32.30
2022-08-18T08:56:28.492Z,32.30
2022-08-18T08:59:07.488Z,32.30
2022-08-18T09:02:03.975Z,32.20
2022-08-18T09:04:54.135Z,32.20
2022-08-18T09:07:59.802Z,32.20
2022-08-18T09:10:49.820Z,32.10
2022-08-18T09:13:36.917Z,32.10
2022-08-18T09:16:14.736Z,32.10
2022-08-18T09:22:27.636Z,32.00
2022-08-18T09:24:57.657Z,32.00
2022-08-18T09:28:00.111Z,32.10
2022-08-18T09:31:08.521Z,32.20
2022-08-18T09:33:42.924Z,32.20
2022-08-18T09:36:15.214Z,32.10
2022-08-18T09:39:15.028Z,32.10
2022-08-18T09:41:58.192Z,32.00
2022-08-18T09:44:48.625Z,31.90
2022-08-18T09:47:27.818Z,31.80
2022-08-18T09:50:27.230Z,31.80
2022-08-18T09:53:17.220Z,31.80
2022-08-18T09:56:01.286Z,31.70
2022-08-18T09:58:55.247Z,31.70
2022-08-18T10:24:38.255Z,31.30
2022-08-18T10:27:09.636Z,31.20
2022-08-18T10:29:54.055Z,31.10
2022-08-18T10:32:37.474Z,31.10
2022-08-18T10:35:29.257Z,31.10
2022-08-18T10:38:05.269Z,31.00
2022-08-18T10:40:36.328Z,31.00
2022-08-18T10:43:45.907Z,30.90
2022-08-18T10:49:27.013Z,30.80
2022-08-18T10:52:20.948Z,30.80
2022-08-18T10:55:06.190Z,30.80
2022-08-18T10:57:56.785Z,30.70
2022-08-18T11:00:42.665Z,30.70
2022-08-18T11:06:14.686Z,30.60
2022-08-18T11:08:54.799Z,30.50
2022-08-18T11:11:38.026Z,30.50
2022-08-18T11:14:38.040Z,30.50
2022-08-18T11:17:19.516Z,30.50
2022-08-18T11:19:51.337Z,30.40
2022-08-18T11:22:34.159Z,30.40
2022-08-18T11:25:20.339Z,30.30
2022-08-18T11:27:51.245Z,30.30
2022-08-18T11:30:31.060Z,30.20
2022-08-18T11:35:59.208Z,30.10
2022-08-18T11:38:33.230Z,30.10
2022-08-18T11:44:21.879Z,30.10
2022-08-18T11:46:51.753Z,30.10
2022-08-18T11:49:33.353Z,30.10
2022-08-18T11:52:25.118Z,30.10
2022-08-18T11:55:15.226Z,30.00
2022-08-18T11:57:59.217Z,30.00
2022-08-18T12:00:49.933Z,30.00
2022-08-18T12:03:22.075Z,30.00
2022-08-18T12:05:56.315Z,30.00
2022-08-18T12:11:34.391Z,29.90
2022-08-18T12:14:30.613Z,29.80
2022-08-18T12:17:03.702Z,29.80
2022-08-18T12:19:34.302Z,29.80
2022-08-18T12:22:14.787Z,29.80
2022-08-18T12:24:44.049Z,29.80
2022-08-18T12:27:21.664Z,29.80
2022-08-18T12:29:54.302Z,29.70
2022-08-18T12:32:46.531Z,29.70
2022-08-18T12:35:15.524Z,29.70
2022-08-18T12:38:04.873Z,29.70
2022-08-18T12:40:36.339Z,29.70
2022-08-18T12:43:06.020Z,29.70
2022-08-18T12:45:37.407Z,29.70
2022-08-18T12:48:07.945Z,29.60
2022-08-18T12:50:49.857Z,29.60
2022-08-18T12:53:29.757Z,29.60
2022-08-18T12:56:24.872Z,29.60
2022-08-18T12:58:54.990Z,29.60
2022-08-18T13:01:27.065Z,29.60
2022-08-18T13:04:11.044Z,29.60
2022-08-18T13:07:00.802Z,29.60
2022-08-18T13:09:34.839Z,29.60
2022-08-18T13:12:22.081Z,29.50
2022-08-18T13:14:52.343Z,29.50
2022-08-18T13:17:30.021Z,29.50
2022-08-18T13:20:08.968Z,29.50
2022-08-18T13:22:41.702Z,29.50
2022-08-18T13:25:33.202Z,29.50
2022-08-18T13:28:03.884Z,29.40
2022-08-18T13:30:35.527Z,29.40
2022-08-18T13:33:34.605Z,29.40
2022-08-18T13:35:56.010Z,29.30
2022-08-18T13:38:27.933Z,29.30
2022-08-18T13:41:00.521Z,29.30
2022-08-18T13:43:34.466Z,29.30
2022-08-18T13:46:05.439Z,29.30
2022-08-18T13:48:34.959Z,29.30
2022-08-18T13:51:05.847Z,29.20
2022-08-18T13:53:51.046Z,29.20
2022-08-18T13:56:31.521Z,29.20
2022-08-18T13:59:01.409Z,29.20
2022-08-18T14:01:44.369Z,29.10
2022-08-18T14:04:22.983Z,29.10
2022-08-18T14:06:59.139Z,29.10
2022-08-18T14:09:36.939Z,29.00
2022-08-18T14:12:15.795Z,29.00
2022-08-18T14:14:54.403Z,29.00
2022-08-18T14:17:26.011Z,28.90
2022-08-18T14:20:22.284Z,28.90
2022-08-18T14:23:22.085Z,28.80
2022-08-18T14:26:16.816Z,28.80
2022-08-18T14:28:47.683Z,28.80
2022-08-18T14:31:20.596Z,28.70
2022-08-18T14:33:54.177Z,28.70
2022-08-18T14:36:29.482Z,28.60
2022-08-18T14:39:01.831Z,28.50
2022-08-18T14:41:31.731Z,28.50
2022-08-18T14:44:12.525Z,28.50
2022-08-18T14:46:52.466Z,28.40
2022-08-18T14:49:28.769Z,28.40
2022-08-18T14:52:00.535Z,28.30
2022-08-18T14:54:30.655Z,28.30
2022-08-18T14:57:03.160Z,28.20
2022-08-18T14:59:34.688Z,28.20
2022-08-18T15:02:13.161Z,28.10
2022-08-18T15:04:56.098Z,28.10
2022-08-18T15:07:25.896Z,28.00
2022-08-18T15:10:14.979Z,28.00
2022-08-18T15:12:45.766Z,27.90
2022-08-18T15:15:18.300Z,27.80
2022-08-18T15:17:49.970Z,27.80
2022-08-18T15:20:23.840Z,27.80
2022-08-18T15:23:13.235Z,27.80
2022-08-18T15:25:43.518Z,27.80
2022-08-18T15:28:23.779Z,27.80
2022-08-18T15:33:43.898Z,27.90
2022-08-18T15:36:24.114Z,27.80
2022-08-18T15:39:00.158Z,27.80
2022-08-18T15:41:35.553Z,27.80
2022-08-18T15:44:15.798Z,27.80
2022-08-18T15:46:51.266Z,27.80
2022-08-18T15:49:23.103Z,27.80
2022-08-18T15:51:52.823Z,27.90
2022-08-18T15:54:22.171Z,27.80
2022-08-18T15:56:58.284Z,27.80
2022-08-18T15:59:34.107Z,27.80
2022-08-18T16:02:11.755Z,27.90
2022-08-18T16:04:46.358Z,27.80
2022-08-18T16:07:17.920Z,27.80
2022-08-18T16:09:54.671Z,27.90
2022-08-18T16:12:23.849Z,27.90
2022-08-18T16:14:54.284Z,27.90
2022-08-18T16:17:29.898Z,27.90
2022-08-18T16:20:01.406Z,27.80
2022-08-18T16:22:31.434Z,27.80
2022-08-18T16:25:03.805Z,27.80
2022-08-18T16:27:34.440Z,27.80
2022-08-18T16:30:06.103Z,27.80
2022-08-18T16:32:35.423Z,27.80
2022-08-18T16:35:05.574Z,27.70
2022-08-18T16:37:35.326Z,27.70
2022-08-18T16:40:05.397Z,27.70
2022-08-18T16:42:34.623Z,27.80
2022-08-18T16:45:05.613Z,27.80
2022-08-18T16:47:40.332Z,27.70
2022-08-18T16:50:12.712Z,27.70
2022-08-18T16:52:43.020Z,27.70
2022-08-18T16:55:14.202Z,27.70
2022-08-18T16:58:06.091Z,27.60
2022-08-18T17:03:59.353Z,27.60
2022-08-18T17:06:30.199Z,27.60
2022-08-18T17:09:03.794Z,27.50
2022-08-18T17:11:48.170Z,27.50
2022-08-18T17:14:23.356Z,27.50
2022-08-18T17:16:56.512Z,27.50
2022-08-18T17:19:28.262Z,27.50
2022-08-18T17:21:57.821Z,27.50
2022-08-18T17:24:31.096Z,27.50
2022-08-18T17:27:20.380Z,27.50
2022-08-18T17:30:06.203Z,27.50
2022-08-18T17:32:42.676Z,27.50
2022-08-18T17:35:26.898Z,27.50
2022-08-18T17:38:06.252Z,27.40
2022-08-18T17:40:42.005Z,27.40
2022-08-18T17:43:16.757Z,27.40
2022-08-18T17:45:50.808Z,27.40
2022-08-18T17:48:25.762Z,27.40
2022-08-18T17:51:29.696Z,27.40
2022-08-18T17:54:02.684Z,27.40
2022-08-18T17:56:39.781Z,27.40
2022-08-18T17:59:46.374Z,27.40
2022-08-18T18:02:28.851Z,27.40
2022-08-18T18:05:02.500Z,27.40
2022-08-18T18:07:38.735Z,27.40
2022-08-18T18:10:11.991Z,27.40
2022-08-18T18:12:41.707Z,27.40
2022-08-18T18:15:14.236Z,27.40
2022-08-18T18:17:45.079Z,27.40
2022-08-18T18:20:42.835Z,27.40
2022-08-18T18:23:22.400Z,27.40
2022-08-18T18:25:52.532Z,27.40
2022-08-18T18:28:32.998Z,27.40
2022-08-18T18:31:23.108Z,27.40
2022-08-18T18:33:59.719Z,27.40
2022-08-18T18:36:44.474Z,27.40
2022-08-18T18:39:23.648Z,27.40
2022-08-18T18:42:26.691Z,27.40
2022-08-18T18:44:59.933Z,27.40
2022-08-18T18:47:57.281Z,27.40
2022-08-18T18:50:55.782Z,27.40
2022-08-18T18:53:41.509Z,27.40
2022-08-18T18:56:22.167Z,27.40
2022-08-18T18:58:55.823Z,27.40
2022-08-18T19:01:32.980Z,27.40
2022-08-18T19:04:11.967Z,27.40
2022-08-18T19:06:52.675Z,27.30
2022-08-18T19:09:32.275Z,27.30
2022-08-18T19:12:24.113Z,27.30
2022-08-18T19:15:00.181Z,27.30
2022-08-18T19:17:46.137Z,27.30
2022-08-18T19:20:28.951Z,27.30
2022-08-18T19:23:15.333Z,27.30
2022-08-18T19:26:07.590Z,27.30
2022-08-18T19:29:11.976Z,27.30
2022-08-18T19:31:38.943Z,27.30
2022-08-18T19:34:16.866Z,27.30
2022-08-18T19:37:22.668Z,27.30
2022-08-18T19:40:16.263Z,27.30
2022-08-18T19:42:56.086Z,27.30
2022-08-18T19:45:27.446Z,27.30
2022-08-18T19:48:17.599Z,27.20
2022-08-18T19:50:51.829Z,27.20
2022-08-18T19:53:49.305Z,27.20
2022-08-18T19:56:36.761Z,27.20
2022-08-18T19:59:36.314Z,27.20
2022-08-18T20:02:29.058Z,27.20
2022-08-18T20:05:15.192Z,27.20
2022-08-18T20:08:05.455Z,27.20
2022-08-18T20:10:54.787Z,27.20
2022-08-18T20:13:43.595Z,27.20
2022-08-18T20:16:44.245Z,27.10
2022-08-18T20:19:53.459Z,27.10
2022-08-18T20:22:24.584Z,27.10
2022-08-18T20:25:00.998Z,27.10
2022-08-18T20:27:43.000Z,27.10
2022-08-18T20:30:29.726Z,27.10
2022-08-18T20:33:19.151Z,27.10
2022-08-18T20:36:27.610Z,27.00
2022-08-18T20:38:59.617Z,27.00
2022-08-18T20:41:31.509Z,27.00
2022-08-18T20:44:31.058Z,27.10
2022-08-18T20:47:08.032Z,27.10
2022-08-18T20:49:57.169Z,27.10
2022-08-18T20:52:45.412Z,27.10
2022-08-18T20:55:30.747Z,27.10
2022-08-18T20:58:08.296Z,27.10
2022-08-18T21:00:43.495Z,27.10
2022-08-18T21:03:16.634Z,27.10
2022-08-18T21:05:48.760Z,27.10
2022-08-18T21:08:18.902Z,27.10
2022-08-18T21:11:11.652Z,27.10
2022-08-18T21:13:45.280Z,27.10
2022-08-18T21:16:38.371Z,27.10
2022-08-18T21:19:15.075Z,27.10
2022-08-18T21:21:50.898Z,27.10
2022-08-18T21:24:29.626Z,27.10
2022-08-18T21:27:04.101Z,27.10
2022-08-18T21:29:47.341Z,27.10
2022-08-18T21:32:23.186Z,27.10
2022-08-18T21:34:52.881Z,27.10
2022-08-18T21:37:22.790Z,27.10
2022-08-18T21:39:54.996Z,27.00
2022-08-18T21:42:28.025Z,27.10
2022-08-18T21:45:00.941Z,27.10
2022-08-18T21:47:34.946Z,27.00
2022-08-18T21:50:28.351Z,27.10
2022-08-18T21:52:59.882Z,27.10
2022-08-18T21:55:31.711Z,27.10
2022-08-18T21:58:04.326Z,27.10
2022-08-18T22:00:40.652Z,27.10
2022-08-18T22:03:17.448Z,27.00
2022-08-18T22:05:59.446Z,27.00
2022-08-18T22:08:33.039Z,27.10
2022-08-18T22:11:51.901Z,27.10
2022-08-18T22:14:29.065Z,27.00
2022-08-18T22:17:35.144Z,27.00
2022-08-18T22:20:43.651Z,27.00
2022-08-18T22:23:36.966Z,27.00
2022-08-18T22:26:33.860Z,27.00
2022-08-18T22:29:09.640Z,27.00
2022-08-18T22:31:47.542Z,26.90
2022-08-18T22:34:28.020Z,27.00
2022-08-18T22:37:04.310Z,27.00
2022-08-18T22:39:42.920Z,27.00
2022-08-18T22:42:13.351Z,26.90
2022-08-18T22:44:43.038Z,26.90
2022-08-18T22:47:13.113Z,26.90
2022-08-18T22:49:42.978Z,26.90
2022-08-18T22:52:20.671Z,26.90
2022-08-18T22:55:00.676Z,26.90
2022-08-18T22:57:35.958Z,26.90
2022-08-18T23:00:11.765Z,26.90
2022-08-18T23:02:40.997Z,26.80
2022-08-18T23:05:13.479Z,26.90
2022-08-18T23:07:42.679Z,26.80
2022-08-18T23:10:13.705Z,26.80
2022-08-18T23:12:44.947Z,26.80
2022-08-18T23:15:14.735Z,26.80
2022-08-18T23:20:30.046Z,26.80
2022-08-18T23:23:06.338Z,26.80
2022-08-18T23:25:35.639Z,26.80
2022-08-18T23:28:04.519Z,26.80
2022-08-18T23:30:33.414Z,26.70
2022-08-18T23:33:02.302Z,26.70
2022-08-18T23:35:31.290Z,26.70
2022-08-18T23:38:00.248Z,26.80
2022-08-18T23:40:30.688Z,26.70
2022-08-18T23:42:59.499Z,26.80
2022-08-18T23:45:30.096Z,26.90
2022-08-18T23:47:58.953Z,26.90
2022-08-18T23:50:30.460Z,26.90
2022-08-18T23:53:00.874Z,27.00
2022-08-18T23:55:30.160Z,27.00
2022-08-18T23:57:59.190Z,27.00
